CZFM/ZFM METAR and TAF weather

Enter ICAO airport designator
Station Type Date Time Source
CZFM METAR 2018/01/24 00:00 UTC NOAA

CZFM 240000Z 31002KT 10SM -SN BKN140 M24/M27 A3022 RMK AC6 -23.1/-24.6/1/SN CVR/MUCH LOOSE LAST OBS/NXT 241400Z SLP240


Station Type Date Time Source
CZFM Decoded METAR 2018/01/24 00:00 UTC NOAA

Fort Mcpherson Airport, Canada (CZFM) 67-24N 134-51W
Jan 23, 2018 - 07:00 PM EST / 2018.01.24 0000 UTC
Wind: from the NW (310 degrees) at 2 MPH (2 KT):0
Visibility: 10 mile(s):0
Sky conditions: mostly cloudy
Weather: light snow
Temperature: -11 F (-24 C)
Dew Point: -16 F (-27 C)
Relative Humidity: 76%
Pressure (altimeter): 30.22 in. Hg (1023 hPa)
ob: CZFM 240000Z 31002KT 10SM -SN BKN140 M24/M27 A3022 RMK AC6 -23.1/-24.6/1/SN CVR/MUCH LOOSE LAST OBS/NXT 241400Z SLP240
cycle: 0

Station Type Date Time Source
CZFM TAF 2018/01/23 19:00 UTC NOAA

TAF CZFM 231838Z 2319/2324 VRB03KT P6SM OVC100
TEMPO 2319/2324 5SM -SN
RMK NXT FCST WILL BE ISSUED AT 241545Z


Example: see airport list